createdAt,value
2019-04-07T00:00:34.972Z,101139.38
2019-04-07T00:03:06.877Z,101146.11
2019-04-07T00:05:38.931Z,101144.20
2019-04-07T00:08:10.381Z,101142.89
2019-04-07T00:10:43.563Z,101148.83
2019-04-07T00:13:14.954Z,101141.11
2019-04-07T00:15:46.436Z,101142.19
2019-04-07T00:18:17.980Z,101138.14
2019-04-07T00:20:49.563Z,101138.25
2019-04-07T00:23:21.395Z,101138.66
2019-04-07T00:25:52.808Z,101142.32
2019-04-07T00:28:24.259Z,101136.80
2019-04-07T00:30:57.415Z,101141.09
2019-04-07T00:33:28.971Z,101134.64
2019-04-07T00:36:00.892Z,101139.33
2019-04-07T00:38:32.563Z,101134.72
2019-04-07T00:41:04.842Z,101136.03
2019-04-07T00:43:36.562Z,101137.35
2019-04-07T00:46:09.714Z,101129.38
2019-04-07T00:48:42.439Z,101132.73
2019-04-07T00:51:14.039Z,101121.97
2019-04-07T00:53:46.542Z,101129.17
2019-04-07T00:56:18.315Z,101123.72
2019-04-07T00:58:49.969Z,101122.80
2019-04-07T01:01:22.856Z,101122.74
2019-04-07T01:03:54.621Z,101128.14
2019-04-07T01:06:26.801Z,101127.29
2019-04-07T01:08:58.270Z,101126.09
2019-04-07T01:11:29.611Z,101122.34
2019-04-07T01:14:01.586Z,101119.20
2019-04-07T01:16:33.115Z,101125.43
2019-04-07T01:19:04.651Z,101122.54
2019-04-07T01:21:36.114Z,101121.09
2019-04-07T01:24:07.573Z,101113.08
2019-04-07T01:26:39.334Z,101120.25
2019-04-07T01:29:10.904Z,101115.52
2019-04-07T01:31:43.077Z,101107.09
2019-04-07T01:34:15.039Z,101111.11
2019-04-07T01:36:46.509Z,101108.22
2019-04-07T01:39:18.324Z,101107.77
2019-04-07T01:41:54.408Z,101110.96
2019-04-07T01:44:33.397Z,101108.77
2019-04-07T01:47:12.485Z,101114.77
2019-04-07T01:49:52.339Z,101110.59
2019-04-07T01:52:25.393Z,101108.50
2019-04-07T01:55:01.484Z,101109.09
2019-04-07T01:57:37.644Z,101107.19
2019-04-07T02:00:29.190Z,101110.14
2019-04-07T02:03:02.317Z,101111.59
2019-04-07T02:05:59.208Z,101107.97
2019-04-07T02:08:33.758Z,101111.53
2019-04-07T02:11:09.346Z,101112.95
2019-04-07T02:14:00.459Z,101114.33
2019-04-07T02:16:43.241Z,101113.89
2019-04-07T02:19:35.963Z,101115.55
2019-04-07T02:22:18.105Z,101114.13
2019-04-07T02:24:51.321Z,101112.58
2019-04-07T02:27:27.264Z,101113.67
2019-04-07T02:30:16.891Z,101116.36
2019-04-07T02:33:02.317Z,101109.26
2019-04-07T02:35:53.573Z,101110.81
2019-04-07T02:38:27.442Z,101105.91
2019-04-07T02:41:04.298Z,101110.70
2019-04-07T02:43:55.591Z,101120.70
2019-04-07T02:46:35.166Z,101110.89
2019-04-07T02:49:12.231Z,101113.91
2019-04-07T02:51:48.271Z,101113.39
2019-04-07T02:54:24.667Z,101108.90
2019-04-07T02:56:57.801Z,101108.67
2019-04-07T02:59:40.134Z,101114.55
2019-04-07T03:02:27.349Z,101109.41
2019-04-07T03:05:00.404Z,101113.97
2019-04-07T03:07:36.477Z,101110.34
2019-04-07T03:10:10.876Z,101112.11
2019-04-07T03:12:44.000Z,101116.73
2019-04-07T03:15:34.317Z,101118.43
2019-04-07T03:18:26.391Z,101114.49
2019-04-07T03:21:11.679Z,101125.24
2019-04-07T03:23:51.838Z,101120.83
2019-04-07T03:26:41.297Z,101121.08
2019-04-07T03:29:20.270Z,101115.47
2019-04-07T03:32:12.043Z,101117.77
2019-04-07T03:34:51.986Z,101117.99
2019-04-07T03:37:38.894Z,101122.67
2019-04-07T03:40:25.776Z,101124.78
2019-04-07T03:42:59.406Z,101130.03
2019-04-07T03:45:49.829Z,101127.61
2019-04-07T03:48:26.495Z,101139.79
2019-04-07T03:51:03.158Z,101127.70
2019-04-07T03:53:39.130Z,101133.00
2019-04-07T03:56:18.723Z,101127.92
2019-04-07T03:58:52.393Z,101129.64
2019-04-07T04:01:41.735Z,101132.14
2019-04-07T04:04:15.606Z,101135.29
2019-04-07T04:06:51.607Z,101136.42
2019-04-07T04:09:30.960Z,101143.57
2019-04-07T04:12:13.573Z,101133.85
2019-04-07T04:14:47.159Z,101141.45
2019-04-07T04:17:19.807Z,101145.27
2019-04-07T04:19:51.884Z,101139.33
2019-04-07T04:22:23.410Z,101140.24
2019-04-07T04:24:55.566Z,101132.24
2019-04-07T04:27:28.139Z,101140.14
2019-04-07T04:30:00.821Z,101137.79
2019-04-07T04:32:32.914Z,101139.78
2019-04-07T04:35:06.684Z,101138.69
2019-04-07T04:37:44.444Z,101144.67
2019-04-07T04:40:11.969Z,101142.61
2019-04-07T04:42:44.350Z,101135.64
2019-04-07T04:45:18.291Z,101147.27
2019-04-07T04:47:49.687Z,101146.74
2019-04-07T04:50:21.434Z,101142.18
2019-04-07T04:52:55.264Z,101144.22
2019-04-07T04:55:26.688Z,101143.62
2019-04-07T04:57:58.250Z,101140.61
2019-04-07T05:00:29.697Z,101139.78
2019-04-07T05:03:01.273Z,101145.87
2019-04-07T05:05:32.842Z,101146.93
2019-04-07T05:08:05.456Z,101147.73
2019-04-07T05:10:37.266Z,101149.70
2019-04-07T05:13:09.635Z,101151.21
2019-04-07T05:15:41.168Z,101152.07
2019-04-07T05:18:13.046Z,101149.89
2019-04-07T05:20:45.325Z,101149.10
2019-04-07T05:23:18.163Z,101146.72
2019-04-07T05:25:50.360Z,101150.12
2019-04-07T05:28:22.043Z,101146.08
2019-04-07T05:30:53.493Z,101145.03
2019-04-07T05:33:26.880Z,101143.13
2019-04-07T05:35:58.395Z,101148.20
2019-04-07T05:38:30.272Z,101152.46
2019-04-07T05:41:01.918Z,101153.85
2019-04-07T05:43:33.926Z,101147.40
2019-04-07T05:46:07.145Z,101155.47
2019-04-07T05:48:39.176Z,101158.76
2019-04-07T05:51:10.683Z,101153.49
2019-04-07T05:53:45.054Z,101157.90
2019-04-07T05:56:15.184Z,101155.03
2019-04-07T05:58:48.867Z,101158.52
2019-04-07T06:01:23.354Z,101154.71
2019-04-07T06:03:54.499Z,101163.20
2019-04-07T06:06:29.927Z,101163.09
2019-04-07T06:09:01.759Z,101158.28
2019-04-07T06:11:36.152Z,101163.56
2019-04-07T06:14:07.452Z,101161.08
2019-04-07T06:16:38.991Z,101154.42
2019-04-07T06:19:12.624Z,101152.84
2019-04-07T06:21:47.391Z,101154.55
2019-04-07T06:24:18.375Z,101154.61
2019-04-07T06:26:50.494Z,101153.77
2019-04-07T06:29:24.467Z,101149.37
2019-04-07T06:31:56.177Z,101150.70
2019-04-07T06:34:28.119Z,101153.72
2019-04-07T06:36:59.617Z,101144.91
2019-04-07T06:39:32.246Z,101157.47
2019-04-07T06:42:03.845Z,101153.72
2019-04-07T06:44:35.637Z,101160.88
2019-04-07T06:47:30.892Z,101160.79
2019-04-07T06:50:14.135Z,101158.20
2019-04-07T06:52:46.609Z,101157.34
2019-04-07T06:55:33.288Z,101156.34
2019-04-07T06:58:10.024Z,101154.16
2019-04-07T07:01:02.257Z,101149.27
2019-04-07T07:03:51.408Z,101141.08
2019-04-07T07:06:40.635Z,101141.31
2019-04-07T07:09:16.662Z,101140.12
2019-04-07T07:12:00.645Z,101135.52
2019-04-07T07:14:43.736Z,101128.53
2019-04-07T07:17:33.174Z,101136.09
2019-04-07T07:20:11.472Z,101136.81
2019-04-07T07:22:47.623Z,101135.88
2019-04-07T07:25:18.152Z,101132.03
2019-04-07T07:27:53.397Z,101129.97
2019-04-07T07:30:25.008Z,101121.70
2019-04-07T07:32:56.503Z,101123.17
2019-04-07T07:35:28.768Z,101122.06
2019-04-07T07:38:00.283Z,101124.52
2019-04-07T07:40:34.084Z,101116.36
2019-04-07T07:43:05.530Z,101112.36
2019-04-07T07:45:38.391Z,101122.63
2019-04-07T07:48:10.993Z,101123.66
2019-04-07T07:50:42.682Z,101123.54
2019-04-07T07:53:14.750Z,101122.45
2019-04-07T07:55:47.664Z,101126.16
2019-04-07T07:58:19.390Z,101125.68
2019-04-07T08:00:51.050Z,101125.70
2019-04-07T08:03:22.995Z,101124.13
2019-04-07T08:05:54.778Z,101121.06
2019-04-07T08:08:26.402Z,101124.61
2019-04-07T08:11:00.650Z,101120.59
2019-04-07T08:13:31.200Z,101123.58
2019-04-07T08:16:02.909Z,101122.43
2019-04-07T08:18:37.173Z,101111.56
2019-04-07T08:21:12.298Z,101113.75
2019-04-07T08:23:45.171Z,101103.33
2019-04-07T08:26:16.528Z,101102.61
2019-04-07T08:28:49.340Z,101100.62
2019-04-07T08:31:21.597Z,101092.50
2019-04-07T08:33:53.761Z,101104.73
2019-04-07T08:36:26.090Z,101100.31
2019-04-07T08:38:58.467Z,101102.03
2019-04-07T08:41:30.143Z,101093.94
2019-04-07T08:44:01.792Z,101092.76
2019-04-07T08:46:39.860Z,101099.03
2019-04-07T08:49:06.629Z,101093.48
2019-04-07T08:51:39.461Z,101096.07
2019-04-07T08:54:15.722Z,101085.70
2019-04-07T08:56:48.047Z,101094.41
2019-04-07T08:59:20.141Z,101082.31
2019-04-07T09:01:54.148Z,101086.05
2019-04-07T09:04:25.251Z,101078.13
2019-04-07T09:06:59.595Z,101077.55
2019-04-07T09:09:38.025Z,101073.27
2019-04-07T09:12:09.284Z,101067.53
2019-04-07T09:14:44.075Z,101067.10
2019-04-07T09:17:39.892Z,101063.84
2019-04-07T09:20:10.786Z,101051.69
2019-04-07T09:22:45.307Z,101044.25
2019-04-07T09:25:32.017Z,101044.74
2019-04-07T09:28:14.774Z,101048.34
2019-04-07T09:30:57.211Z,101051.06
2019-04-07T09:33:30.872Z,101044.38
2019-04-07T09:36:10.252Z,101049.98
2019-04-07T09:38:52.531Z,101045.12
2019-04-07T09:41:43.866Z,101037.53
2019-04-07T09:44:36.590Z,101046.80
2019-04-07T09:47:06.350Z,101050.09
2019-04-07T09:49:56.170Z,101046.17
2019-04-07T09:52:45.098Z,101037.16
2019-04-07T09:55:17.851Z,101039.86
2019-04-07T09:57:53.949Z,101035.71
2019-04-07T10:00:33.884Z,101029.75
2019-04-07T10:03:19.270Z,101029.69
2019-04-07T10:06:10.560Z,101019.97
2019-04-07T10:08:46.502Z,101009.80
2019-04-07T10:11:23.418Z,101008.59
2019-04-07T10:13:56.568Z,101008.10
2019-04-07T10:16:36.135Z,101005.78
2019-04-07T10:19:16.462Z,101004.31
2019-04-07T10:22:04.595Z,101005.07
2019-04-07T10:24:43.437Z,101003.34
2019-04-07T10:27:20.465Z,101001.14
2019-04-07T10:29:54.547Z,100995.11
2019-04-07T10:32:30.842Z,100996.58
2019-04-07T10:35:13.661Z,100992.72
2019-04-07T10:37:47.464Z,100985.30
2019-04-07T10:40:35.879Z,100988.56
2019-04-07T10:43:09.569Z,100989.81
2019-04-07T10:45:43.879Z,100993.33
2019-04-07T10:48:20.221Z,100988.83
2019-04-07T10:51:05.623Z,100984.53
2019-04-07T10:53:39.403Z,100983.86
2019-04-07T10:56:24.363Z,100978.47
2019-04-07T10:59:09.385Z,100975.42
2019-04-07T11:01:45.791Z,100977.53
2019-04-07T11:04:25.165Z,100970.16
2019-04-07T11:07:05.185Z,100972.84
2019-04-07T11:09:53.366Z,100966.36
2019-04-07T11:12:42.649Z,100964.66
2019-04-07T11:15:22.355Z,100968.30
2019-04-07T11:17:55.104Z,100962.45
2019-04-07T11:20:45.432Z,100955.66
2019-04-07T11:23:25.249Z,100958.41
2019-04-07T11:25:59.357Z,100958.36
2019-04-07T11:28:44.661Z,100950.50
2019-04-07T11:31:27.748Z,100949.27
2019-04-07T11:34:00.911Z,100944.36
2019-04-07T11:36:50.411Z,100944.22
2019-04-07T11:39:36.249Z,100939.50
2019-04-07T11:42:13.067Z,100935.09
2019-04-07T11:44:53.045Z,100937.09
2019-04-07T11:47:42.772Z,100928.98
2019-04-07T11:50:34.338Z,100924.73
2019-04-07T11:53:23.185Z,100916.59
2019-04-07T11:55:56.450Z,100910.78
2019-04-07T11:58:45.260Z,100907.62
2019-04-07T12:01:24.881Z,100910.71
2019-04-07T12:03:57.885Z,100909.38
2019-04-07T12:06:40.128Z,100902.29
2019-04-07T12:09:16.308Z,100899.05
2019-04-07T12:11:52.647Z,100897.17
2019-04-07T12:14:28.936Z,100896.34
2019-04-07T12:17:09.329Z,100898.27
2019-04-07T12:19:48.361Z,100894.11
2019-04-07T12:22:28.221Z,100893.36
2019-04-07T12:25:19.972Z,100891.62
2019-04-07T12:27:56.735Z,100892.66
2019-04-07T12:30:29.993Z,100879.20
2019-04-07T12:33:20.391Z,100876.66
2019-04-07T12:35:56.054Z,100879.34
2019-04-07T12:38:35.039Z,100880.50
2019-04-07T12:41:15.069Z,100880.75
2019-04-07T12:43:49.271Z,100878.66
2019-04-07T12:46:24.570Z,100867.28
2019-04-07T12:48:58.624Z,100871.16
2019-04-07T12:51:31.887Z,100859.14
2019-04-07T12:54:22.176Z,100862.27
2019-04-07T12:56:57.728Z,100860.03
2019-04-07T12:59:51.357Z,100852.81
2019-04-07T13:02:27.221Z,100857.69
2019-04-07T13:05:06.092Z,100852.87
2019-04-07T13:07:42.755Z,100853.31
2019-04-07T13:10:34.003Z,100852.57
2019-04-07T13:13:15.986Z,100853.36
2019-04-07T13:15:52.107Z,100849.34
2019-04-07T13:18:27.757Z,100848.41
2019-04-07T13:21:05.440Z,100844.28
2019-04-07T13:23:39.669Z,100843.24
2019-04-07T13:26:19.213Z,100845.56
2019-04-07T13:28:55.392Z,100842.10
2019-04-07T13:31:28.707Z,100845.71
2019-04-07T13:34:04.540Z,100839.72
2019-04-07T13:36:38.139Z,100835.94
2019-04-07T13:39:12.134Z,100836.11
2019-04-07T13:42:02.323Z,100841.80
2019-04-07T13:44:52.634Z,100837.77
2019-04-07T13:47:44.311Z,100835.90
2019-04-07T13:50:17.954Z,100838.67
2019-04-07T13:53:07.754Z,100834.16
2019-04-07T13:55:57.524Z,100834.11
2019-04-07T13:58:36.911Z,100838.23
2019-04-07T14:01:18.020Z,100837.81
2019-04-07T14:04:00.102Z,100832.50
2019-04-07T14:06:39.355Z,100840.13
2019-04-07T14:09:12.497Z,100836.39
2019-04-07T14:12:03.172Z,100838.30
2019-04-07T14:14:22.271Z,100838.94
2019-04-07T14:17:10.781Z,100844.78
2019-04-07T14:19:44.477Z,100834.63
2019-04-07T14:22:17.738Z,100833.44
2019-04-07T14:24:51.552Z,100835.59
2019-04-07T14:27:29.775Z,100835.87
2019-04-07T14:30:08.934Z,100834.28
2019-04-07T14:32:54.616Z,100833.79
2019-04-07T14:35:37.109Z,100833.44
2019-04-07T14:38:11.085Z,100833.44
2019-04-07T14:40:47.095Z,100832.73
2019-04-07T14:43:39.024Z,100834.25
2019-04-07T14:46:18.449Z,100830.41
2019-04-07T14:48:57.158Z,100832.63
2019-04-07T14:51:33.976Z,100833.89
2019-04-07T14:54:07.111Z,100830.22
2019-04-07T14:56:56.349Z,100834.06
2019-04-07T14:59:35.537Z,100832.22
2019-04-07T15:02:07.665Z,100832.22
2019-04-07T15:04:46.741Z,100835.99
2019-04-07T15:07:23.694Z,100835.14
2019-04-07T15:10:06.182Z,100832.88
2019-04-07T15:12:53.549Z,100840.23
2019-04-07T15:15:25.054Z,100838.39
2019-04-07T15:17:56.530Z,100842.76
2019-04-07T15:20:28.151Z,100839.98
2019-04-07T15:23:00.587Z,100837.81
2019-04-07T15:25:32.911Z,100838.93
2019-04-07T15:28:04.528Z,100838.02
2019-04-07T15:30:38.415Z,100840.84
2019-04-07T15:33:11.885Z,100843.89
2019-04-07T15:35:48.641Z,100839.16
2019-04-07T15:38:16.516Z,100836.98
2019-04-07T15:40:48.242Z,100839.90
2019-04-07T15:43:19.796Z,100842.45
2019-04-07T15:45:52.212Z,100837.72
2019-04-07T15:48:25.737Z,100836.16
2019-04-07T15:51:00.856Z,100835.55
2019-04-07T15:53:31.946Z,100843.69
2019-04-07T15:56:06.554Z,100839.68
2019-04-07T15:58:37.374Z,100842.48
2019-04-07T16:01:10.469Z,100842.02
2019-04-07T16:03:45.140Z,100842.47
2019-04-07T16:06:16.359Z,100842.38
2019-04-07T16:08:49.674Z,100843.48
2019-04-07T16:11:23.443Z,100846.48
2019-04-07T16:13:55.172Z,100854.88
2019-04-07T16:16:29.182Z,100851.81
2019-04-07T16:19:00.142Z,100850.22
2019-04-07T16:21:31.757Z,100846.22
2019-04-07T16:24:03.571Z,100854.95
2019-04-07T16:26:37.051Z,100852.52
2019-04-07T16:29:15.201Z,100859.52
2019-04-07T16:31:44.867Z,100859.35
2019-04-07T16:34:16.956Z,100857.87
2019-04-07T16:36:51.882Z,100861.49
2019-04-07T16:39:25.294Z,100863.70
2019-04-07T16:41:56.851Z,100866.99
2019-04-07T16:44:28.445Z,100867.58
2019-04-07T16:47:03.913Z,100869.95
2019-04-07T16:49:33.068Z,100865.32
2019-04-07T16:52:05.931Z,100869.05
2019-04-07T16:54:41.653Z,100872.30
2019-04-07T16:57:11.241Z,100877.05
2019-04-07T16:59:43.559Z,100878.35
2019-04-07T17:02:17.023Z,100880.86
2019-04-07T17:04:48.448Z,100882.68
2019-04-07T17:07:22.078Z,100880.95
2019-04-07T17:09:56.442Z,100885.67
2019-04-07T17:12:26.792Z,100894.48
2019-04-07T17:14:59.002Z,100893.14
2019-04-07T17:17:31.418Z,100899.69
2019-04-07T17:20:04.693Z,100899.94
2019-04-07T17:22:37.007Z,100897.27
2019-04-07T17:25:10.969Z,100893.71
2019-04-07T17:27:43.640Z,100901.11
2019-04-07T17:30:23.198Z,100899.41
2019-04-07T17:32:53.640Z,100900.86
2019-04-07T17:35:25.711Z,100899.00
2019-04-07T17:38:03.577Z,100904.65
2019-04-07T17:40:34.064Z,100900.44
2019-04-07T17:43:13.899Z,100905.36
2019-04-07T17:45:52.092Z,100903.50
2019-04-07T17:48:24.487Z,100905.19
2019-04-07T17:51:01.025Z,100902.64
2019-04-07T17:53:38.910Z,100899.50
2019-04-07T17:56:20.298Z,100903.25
2019-04-07T17:58:58.751Z,100907.36
2019-04-07T18:01:35.679Z,100903.56
2019-04-07T18:04:27.307Z,100908.20
2019-04-07T18:07:16.402Z,100907.87
2019-04-07T18:09:53.367Z,100903.09
2019-04-07T18:12:39.089Z,100903.20
2019-04-07T18:15:21.950Z,100899.44
2019-04-07T18:18:08.033Z,100908.05
2019-04-07T18:20:47.169Z,100904.87
2019-04-07T18:23:37.977Z,100903.48
2019-04-07T18:26:13.976Z,100904.28
2019-04-07T18:29:01.727Z,100906.88
2019-04-07T18:31:47.754Z,100905.41
2019-04-07T18:34:25.036Z,100901.01
2019-04-07T18:36:59.949Z,100903.80
2019-04-07T18:39:55.436Z,100904.05
2019-04-07T18:42:29.401Z,100908.58
2019-04-07T18:45:38.453Z,100898.46
2019-04-07T18:48:24.676Z,100907.20
2019-04-07T18:50:58.749Z,100902.40
2019-04-07T18:53:48.689Z,100901.00
2019-04-07T18:56:35.335Z,100901.05
2019-04-07T18:59:17.102Z,100899.90
2019-04-07T19:02:08.457Z,100899.42
2019-04-07T19:04:41.362Z,100894.80
2019-04-07T19:07:16.889Z,100898.42
2019-04-07T19:10:04.396Z,100902.02
2019-04-07T19:12:39.464Z,100895.55
2019-04-07T19:15:23.873Z,100894.98
2019-04-07T19:18:16.146Z,100896.98
2019-04-07T19:20:49.448Z,100888.82
2019-04-07T19:23:26.265Z,100892.81
2019-04-07T19:26:06.596Z,100893.29
2019-04-07T19:28:43.112Z,100892.37
2019-04-07T19:31:32.178Z,100887.27
2019-04-07T19:34:06.355Z,100886.79
2019-04-07T19:36:52.181Z,100886.60
2019-04-07T19:39:38.338Z,100879.69
2019-04-07T19:42:13.028Z,100887.11
2019-04-07T19:44:52.086Z,100888.07
2019-04-07T19:47:24.029Z,100888.07
2019-04-07T19:49:57.181Z,100887.44
2019-04-07T19:52:41.137Z,100890.55
2019-04-07T19:55:32.770Z,100886.77
2019-04-07T19:58:06.094Z,100892.83
2019-04-07T20:00:54.259Z,100887.91
2019-04-07T20:03:39.224Z,100894.03
2019-04-07T20:06:24.820Z,100891.92
2019-04-07T20:09:07.678Z,100898.41
2019-04-07T20:11:48.801Z,100893.75
2019-04-07T20:14:22.775Z,100893.22
2019-04-07T20:17:16.535Z,100894.25
2019-04-07T20:19:48.823Z,100894.47
2019-04-07T20:22:35.004Z,100892.77
2019-04-07T20:25:15.970Z,100893.05
2019-04-07T20:27:47.680Z,100895.70
2019-04-07T20:30:30.835Z,100896.95
2019-04-07T20:33:07.630Z,100895.52
2019-04-07T20:35:42.273Z,100889.20
2019-04-07T20:38:27.319Z,100890.31
2019-04-07T20:41:17.074Z,100891.06
2019-04-07T20:43:53.262Z,100889.75
2019-04-07T20:46:31.672Z,100883.49
2019-04-07T20:49:20.094Z,100881.79
2019-04-07T20:51:56.500Z,100877.06
2019-04-07T20:54:31.639Z,100880.28
2019-04-07T20:57:05.090Z,100877.80
2019-04-07T20:59:51.670Z,100869.84
2019-04-07T21:02:38.887Z,100873.93
2019-04-07T21:05:26.003Z,100878.59
2019-04-07T21:08:17.030Z,100875.27
2019-04-07T21:11:07.824Z,100873.94
2019-04-07T21:13:47.135Z,100874.52
2019-04-07T21:16:25.956Z,100870.06
2019-04-07T21:19:06.822Z,100879.91
2019-04-07T21:21:46.446Z,100878.21
2019-04-07T21:24:23.006Z,100878.38
2019-04-07T21:26:59.424Z,100879.34
2019-04-07T21:29:47.713Z,100881.14
2019-04-07T21:32:20.351Z,100880.73
2019-04-07T21:35:00.365Z,100881.78
2019-04-07T21:37:37.920Z,100879.02
2019-04-07T21:40:11.592Z,100884.15
2019-04-07T21:42:53.683Z,100879.28
2019-04-07T21:45:47.222Z,100882.99
2019-04-07T21:48:20.085Z,100883.08
2019-04-07T21:51:13.037Z,100883.16
2019-04-07T21:53:45.474Z,100883.80
2019-04-07T21:56:39.042Z,100885.48
2019-04-07T21:59:30.934Z,100883.87
2019-04-07T22:02:21.607Z,100884.41
2019-04-07T22:04:58.668Z,100880.73
2019-04-07T22:07:35.526Z,100883.53
2019-04-07T22:10:11.504Z,100881.55
2019-04-07T22:12:44.256Z,100880.38
2019-04-07T22:15:15.898Z,100873.66
2019-04-07T22:17:47.897Z,100875.84
2019-04-07T22:20:20.612Z,100878.75
2019-04-07T22:22:56.419Z,100873.80
2019-04-07T22:25:28.753Z,100873.05
2019-04-07T22:28:00.379Z,100865.34
2019-04-07T22:30:33.967Z,100864.02
2019-04-07T22:33:06.312Z,100867.23
2019-04-07T22:35:41.451Z,100862.53
2019-04-07T22:38:13.466Z,100863.33
2019-04-07T22:40:45.771Z,100855.16
2019-04-07T22:43:18.876Z,100855.41
2019-04-07T22:45:59.300Z,100850.89
2019-04-07T22:48:26.584Z,100855.34
2019-04-07T22:50:57.366Z,100850.95
2019-04-07T22:53:31.197Z,100852.56
2019-04-07T22:56:04.814Z,100846.83
2019-04-07T22:58:36.816Z,100847.96
2019-04-07T23:01:09.041Z,100847.83
2019-04-07T23:03:41.185Z,100849.72
2019-04-07T23:06:12.880Z,100848.36
2019-04-07T23:08:45.310Z,100843.59
2019-04-07T23:11:17.934Z,100840.75
2019-04-07T23:13:49.517Z,100843.87
2019-04-07T23:16:21.806Z,100847.28
2019-04-07T23:18:54.172Z,100848.41
2019-04-07T23:21:26.733Z,100847.46
2019-04-07T23:23:58.322Z,100848.80
2019-04-07T23:26:31.782Z,100841.61
2019-04-07T23:29:04.473Z,100843.55
2019-04-07T23:31:36.660Z,100842.32
2019-04-07T23:34:09.077Z,100838.30
2019-04-07T23:36:41.296Z,100840.95
2019-04-07T23:39:13.128Z,100836.60
2019-04-07T23:41:45.612Z,100844.78
2019-04-07T23:44:17.219Z,100838.34
2019-04-07T23:46:48.928Z,100833.67
2019-04-07T23:49:20.510Z,100829.70
2019-04-07T23:51:51.959Z,100827.23
2019-04-07T23:54:23.390Z,100829.50
2019-04-07T23:56:54.788Z,100826.91
2019-04-07T23:59:27.062Z,100823.51
